Time;durP1;ratioP1;P1;durP2;ratioP2;P2;SDS_P1;SDS_P2;PMS_P1;PMS_P2;Temp;Humidity;BMP_temperature;BMP_pressure;BME280_temperature;BME280_humidity;BME280_pressure;Samples;Min_cycle;Max_cycle;Signal;HPM_P1;HPM_P2
2022/02/02 00:04:30;;;;;;;30.83;6.28;;;5.80;99.90;;;;;;5071189;28;20039;-49
2022/02/02 00:09:34;;;;;;;38.60;5.97;;;5.90;99.90;;;;;;5070897;28;20035;-50
2022/02/02 00:15:02;;;;;;;26.45;5.75;;;5.90;99.90;;;;;;5071107;28;20035;-50
2022/02/02 00:17:43;;;;;;;32.53;6.28;;;5.80;99.90;;;;;;5070427;28;20028;-48
2022/02/02 00:20:21;;;;;;;26.95;5.55;;;5.80;99.90;;;;;;5070857;28;20502;-49
2022/02/02 00:22:49;;;;;;;34.65;6.30;;;5.90;99.90;;;;;;5070837;28;20060;-49
2022/02/02 00:25:21;;;;;;;34.03;5.65;;;5.80;99.90;;;;;;5070854;28;20126;-51
2022/02/02 00:27:51;;;;;;;40.00;7.07;;;5.80;99.90;;;;;;5059180;28;20038;-50
2022/02/02 00:30:20;;;;;;;32.70;6.50;;;5.80;99.90;;;;;;5060793;28;20470;-50
2022/02/02 00:33:31;;;;;;;39.70;6.00;;;5.90;99.90;;;;;;5070584;28;20109;-51
2022/02/02 00:35:40;;;;;;;43.63;6.63;;;5.80;99.90;;;;;;5069505;28;20036;-48
2022/02/02 00:38:05;;;;;;;19.20;4.28;;;5.70;99.90;;;;;;5069986;28;20056;-49
2022/02/02 00:40:31;;;;;;;26.65;4.70;;;5.70;99.90;;;;;;5070331;28;20068;-48
2022/02/02 00:42:56;;;;;;;30.17;5.30;;;5.60;99.90;;;;;;5070341;28;20577;-48
2022/02/02 00:45:29;;;;;;;20.90;4.47;;;5.50;99.90;;;;;;5068889;28;20162;-48
2022/02/02 00:47:55;;;;;;;19.08;3.88;;;5.40;99.90;;;;;;5069912;28;20082;-49
2022/02/02 00:50:20;;;;;;;22.25;4.53;;;5.30;99.90;;;;;;5070098;28;20054;-51
2022/02/02 00:52:50;;;;;;;21.08;4.97;;;5.20;99.90;;;;;;5070231;28;20025;-51
2022/02/02 00:55:16;;;;;;;18.75;2.45;;;5.20;99.90;;;;;;5070162;28;20033;-50
2022/02/02 00:57:42;;;;;;;33.95;3.67;;;5.10;99.90;;;;;;5059801;28;20076;-49
2022/02/02 01:00:08;;;;;;;37.30;5.90;;;5.10;99.90;;;;;;5059091;28;20049;-50
2022/02/02 01:02:34;;;;;;;30.85;5.28;;;5.10;99.90;;;;;;5070104;28;20385;-49
2022/02/02 01:04:59;;;;;;;26.67;4.75;;;5.00;99.90;;;;;;5069948;28;20120;-49
2022/02/02 01:10:17;;;;;;;42.80;5.80;;;5.10;99.90;;;;;;5070606;28;20679;-51
2022/02/02 01:21:00;;;;;;;56.33;8.00;;;5.20;99.90;;;;;;5069898;28;20058;-48
2022/02/02 01:28:40;;;;;;;36.67;7.88;;;5.40;99.90;;;;;;5062820;28;20023;-48
2022/02/02 01:31:06;;;;;;;37.28;8.50;;;5.40;99.90;;;;;;5061630;28;20528;-48
2022/02/02 01:33:32;;;;;;;44.85;7.47;;;5.40;99.90;;;;;;5069542;28;20133;-51
2022/02/02 01:35:58;;;;;;;31.48;5.55;;;5.40;99.90;;;;;;5069660;28;20021;-50
2022/02/02 01:38:27;;;;;;;34.13;6.18;;;5.40;99.90;;;;;;5068758;28;20026;-50
2022/02/02 01:40:59;;;;;;;35.75;6.72;;;5.50;99.90;;;;;;5069342;28;20462;-49
2022/02/02 01:43:39;;;;;;;34.80;5.90;;;5.50;99.90;;;;;;5069242;28;20025;-50
2022/02/02 01:46:10;;;;;;;35.92;6.30;;;5.50;99.90;;;;;;5069385;28;20029;-49
2022/02/02 01:48:45;;;;;;;31.00;6.35;;;5.50;99.90;;;;;;5068572;28;20042;-48
2022/02/02 01:54:49;;;;;;;32.53;6.43;;;5.50;99.90;;;;;;5069319;28;20126;-48
2022/02/02 01:56:34;;;;;;;34.25;5.88;;;5.50;99.90;;;;;;5068173;28;20044;-48
2022/02/02 01:59:02;;;;;;;34.03;5.30;;;5.50;99.90;;;;;;5055442;28;20086;-48
2022/02/02 02:01:29;;;;;;;38.72;6.82;;;5.50;99.90;;;;;;5055426;28;20390;-48
2022/02/02 02:03:55;;;;;;;39.30;6.32;;;5.50;99.90;;;;;;5048909;28;20100;-50
2022/02/02 02:06:21;;;;;;;31.60;5.70;;;5.50;99.90;;;;;;5048809;28;20608;-50
2022/02/02 02:08:46;;;;;;;31.23;5.70;;;5.50;99.90;;;;;;5048167;28;20039;-48
2022/02/02 02:11:21;;;;;;;32.47;5.30;;;5.50;99.90;;;;;;5048669;28;20029;-48
2022/02/02 02:14:37;;;;;;;25.23;4.40;;;5.50;99.90;;;;;;5047428;28;20025;-48
2022/02/02 02:16:47;;;;;;;26.20;5.88;;;5.50;99.90;;;;;;5048610;28;20025;-50
2022/02/02 02:19:13;;;;;;;26.40;5.10;;;5.50;99.90;;;;;;5048023;28;20116;-49
2022/02/02 02:21:39;;;;;;;22.73;5.00;;;5.50;99.90;;;;;;5048817;28;20100;-48
2022/02/02 02:24:04;;;;;;;26.55;4.75;;;5.50;99.90;;;;;;5048843;28;20184;-49
2022/02/02 02:26:30;;;;;;;25.17;5.90;;;5.50;99.90;;;;;;5048630;28;20441;-50
2022/02/02 02:32:05;;;;;;;30.20;5.43;;;5.50;99.90;;;;;;5063853;28;20195;-49
2022/02/02 02:34:56;;;;;;;26.90;4.63;;;5.50;99.90;;;;;;5068506;28;20164;-50
2022/02/02 02:37:43;;;;;;;20.23;4.40;;;5.50;99.90;;;;;;5067806;28;20542;-48
2022/02/02 02:55:45;;;;;;;26.75;4.40;;;5.50;99.90;;;;;;5068584;28;20016;-48
2022/02/02 02:56:48;;;;;;;24.15;4.95;;;5.60;99.90;;;;;;5068969;28;20176;-51
2022/02/02 02:59:18;;;;;;;21.30;4.40;;;5.60;99.90;;;;;;5051654;28;20017;-48
2022/02/02 03:29:52;;;;;;;25.23;5.18;;;5.50;99.90;;;;;;5068309;28;20040;-49
2022/02/02 03:34:42;;;;;;;24.42;6.10;;;5.50;99.90;;;;;;5068134;28;20501;-49
2022/02/02 03:54:02;;;;;;;28.15;5.28;;;5.40;99.90;;;;;;5071294;28;20040;-48
2022/02/02 04:07:04;;;;;;;18.83;4.32;;;5.40;99.90;;;;;;5051553;28;20147;-48
2022/02/02 04:09:33;;;;;;;30.13;5.60;;;5.40;99.90;;;;;;5050552;28;20397;-47
2022/02/02 04:12:28;;;;;;;29.50;5.43;;;5.50;99.90;;;;;;5051134;28;20116;-48
2022/02/02 04:55:40;;;;;;;37.13;5.88;;;5.60;99.90;;;;;;5042008;28;20036;-48
2022/02/02 05:06:03;;;;;;;32.10;5.80;;;5.50;99.90;;;;;;5038686;28;20052;-50
2022/02/02 05:11:09;;;;;;;27.70;5.47;;;5.60;99.90;;;;;;5040611;28;20028;-49
2022/02/02 05:41:02;;;;;;;31.52;5.00;;;5.50;99.90;;;;;;5053493;28;20047;-46
2022/02/02 05:43:27;;;;;;;36.80;5.38;;;5.40;99.90;;;;;;5041674;28;20035;-46
2022/02/02 05:48:43;;;;;;;44.83;6.88;;;5.40;99.90;;;;;;5042175;28;20025;-46
2022/02/02 05:51:23;;;;;;;28.58;5.25;;;5.40;99.90;;;;;;5043413;28;20056;-47
2022/02/02 05:53:51;;;;;;;34.88;5.63;;;5.40;99.90;;;;;;5062216;28;20021;-51
2022/02/02 05:56:17;;;;;;;30.40;5.53;;;5.40;99.90;;;;;;5052211;28;20025;-50
2022/02/02 05:58:45;;;;;;;32.15;5.13;;;5.40;99.90;;;;;;5054596;28;20017;-49
2022/02/02 06:01:12;;;;;;;25.80;5.40;;;5.40;99.90;;;;;;5056915;28;20036;-45
2022/02/02 06:04:06;;;;;;;30.02;5.38;;;5.40;99.90;;;;;;5055356;28;20048;-46
2022/02/02 06:06:33;;;;;;;44.78;6.25;;;5.40;99.90;;;;;;5043230;28;20030;-46
2022/02/02 06:09:00;;;;;;;39.90;6.80;;;5.40;99.90;;;;;;5045589;28;20025;-46
2022/02/02 06:11:27;;;;;;;34.30;6.18;;;5.30;99.90;;;;;;5047656;28;20078;-48
2022/02/02 06:13:54;;;;;;;37.38;6.28;;;5.30;99.90;;;;;;5042755;28;20526;-46
2022/02/02 06:16:22;;;;;;;40.85;6.68;;;5.30;99.90;;;;;;5044123;28;20474;-48
2022/02/02 06:18:59;;;;;;;27.67;5.13;;;5.30;99.90;;;;;;5042335;28;20053;-47
2022/02/02 06:21:31;;;;;;;39.97;5.60;;;5.30;99.90;;;;;;5041342;28;20112;-48
2022/02/02 06:24:06;;;;;;;33.83;6.63;;;5.30;99.90;;;;;;5037493;28;20520;-49
2022/02/02 06:26:34;;;;;;;37.00;6.43;;;5.30;99.90;;;;;;5038584;28;20040;-48
2022/02/02 06:29:04;;;;;;;30.90;5.63;;;5.20;99.90;;;;;;5053037;28;20478;-51
2022/02/02 06:31:35;;;;;;;36.40;6.57;;;5.30;99.90;;;;;;5062402;28;20597;-49
2022/02/02 06:34:01;;;;;;;30.23;6.05;;;5.30;99.90;;;;;;5042833;28;20218;-48
2022/02/02 06:36:29;;;;;;;24.67;5.78;;;5.30;99.90;;;;;;5048391;28;20076;-48
2022/02/02 06:38:55;;;;;;;39.38;5.75;;;5.30;99.90;;;;;;5046651;28;20483;-48
2022/02/02 06:41:24;;;;;;;32.45;6.60;;;5.30;99.90;;;;;;5048380;28;20124;-47
2022/02/02 06:43:50;;;;;;;45.13;6.88;;;5.30;99.90;;;;;;5048518;28;20013;-47
2022/02/02 06:46:18;;;;;;;34.78;6.40;;;5.30;99.90;;;;;;5048416;28;20380;-49
2022/02/02 06:48:44;;;;;;;34.53;6.45;;;5.20;99.90;;;;;;5047818;28;20025;-50
2022/02/02 06:51:21;;;;;;;39.17;6.25;;;5.30;99.90;;;;;;5065530;28;20390;-48
2022/02/02 06:54:16;;;;;;;38.03;6.28;;;5.30;99.90;;;;;;5037744;28;20054;-49
2022/02/02 06:56:51;;;;;;;36.92;6.25;;;5.30;99.90;;;;;;5037269;28;20072;-49
2022/02/02 07:05:08;;;;;;;34.58;7.13;;;5.30;99.90;;;;;;5035768;28;20068;-50
2022/02/02 07:10:35;;;;;;;37.42;5.93;;;5.30;99.90;;;;;;5048594;28;20036;-48
2022/02/02 07:13:27;;;;;;;22.50;4.50;;;5.30;99.90;;;;;;5048218;28;20024;-48
2022/02/02 07:18:35;;;;;;;33.25;6.45;;;5.40;99.90;;;;;;5051480;28;20021;-49
2022/02/02 07:27:24;;;;;;;28.92;5.30;;;5.40;99.90;;;;;;5049193;28;20083;-51
2022/02/02 07:32:50;;;;;;;42.80;6.90;;;5.30;99.90;;;;;;5050057;28;20037;-49
2022/02/02 07:35:23;;;;;;;36.55;5.78;;;5.30;99.90;;;;;;5052303;28;20035;-49
2022/02/02 07:37:56;;;;;;;31.42;6.20;;;5.40;99.90;;;;;;5050946;28;20029;-51
2022/02/02 07:40:25;;;;;;;45.33;6.13;;;5.40;99.90;;;;;;5052668;28;20112;-50
2022/02/02 07:42:52;;;;;;;34.42;6.35;;;5.40;99.90;;;;;;5046677;28;20022;-49
2022/02/02 07:45:22;;;;;;;32.17;6.10;;;5.50;99.90;;;;;;5041124;28;20021;-48
2022/02/02 07:47:58;;;;;;;26.40;5.78;;;5.60;99.90;;;;;;5036994;28;20463;-51
2022/02/02 07:50:25;;;;;;;34.67;6.25;;;5.80;99.90;;;;;;5032397;28;20033;-49
2022/02/02 07:52:50;;;;;;;33.38;5.30;;;5.80;99.90;;;;;;5031586;28;20044;-49
2022/02/02 07:55:18;;;;;;;27.50;5.38;;;5.90;99.90;;;;;;5030374;28;20306;-49
2022/02/02 07:57:46;;;;;;;28.65;5.35;;;5.80;99.90;;;;;;5029890;28;20048;-49
2022/02/02 08:00:19;;;;;;;29.63;5.95;;;5.90;99.90;;;;;;5030810;28;20072;-48
2022/02/02 08:03:02;;;;;;;38.90;5.80;;;5.90;99.90;;;;;;5040945;28;20494;-49
2022/02/02 08:05:30;;;;;;;26.83;5.50;;;5.90;99.90;;;;;;5043175;28;20020;-48
2022/02/02 08:08:14;;;;;;;34.20;5.45;;;6.00;99.90;;;;;;5030141;28;20022;-49
2022/02/02 08:10:41;;;;;;;28.42;5.65;;;6.00;99.90;;;;;;5032388;28;20029;-50
2022/02/02 08:13:11;;;;;;;34.85;5.30;;;6.10;99.90;;;;;;5032180;28;20021;-48
2022/02/02 08:15:37;;;;;;;29.03;5.17;;;6.10;99.90;;;;;;5030889;28;20024;-48
2022/02/02 08:18:02;;;;;;;38.75;5.65;;;6.20;99.90;;;;;;5031406;28;20157;-48
2022/02/02 08:20:28;;;;;;;30.40;5.40;;;6.20;99.90;;;;;;5032049;28;20049;-48
2022/02/02 08:22:54;;;;;;;33.17;5.28;;;6.20;99.90;;;;;;5031935;28;20022;-49
2022/02/02 08:25:31;;;;;;;40.72;6.47;;;6.20;99.90;;;;;;5031983;28;20112;-48
2022/02/02 08:28:01;;;;;;;33.33;6.72;;;6.20;99.90;;;;;;5030258;28;20033;-51
2022/02/02 08:30:29;;;;;;;26.17;5.30;;;6.20;99.90;;;;;;5032119;28;20372;-51
2022/02/02 08:33:01;;;;;;;38.70;5.57;;;6.20;99.90;;;;;;5032054;28;20430;-51
2022/02/02 08:35:40;;;;;;;23.15;4.85;;;6.20;99.90;;;;;;5031940;28;20109;-51
2022/02/02 08:38:13;;;;;;;22.98;5.13;;;6.20;99.90;;;;;;5031403;28;20365;-51
2022/02/02 08:40:44;;;;;;;24.80;5.63;;;6.10;99.90;;;;;;5031930;28;20378;-48
2022/02/02 08:46:03;;;;;;;18.05;5.03;;;6.00;99.90;;;;;;5030439;28;20180;-48
2022/02/02 08:48:29;;;;;;;31.83;4.15;;;6.00;99.90;;;;;;5031380;28;20049;-48
2022/02/02 08:51:28;;;;;;;17.70;3.78;;;5.90;99.90;;;;;;5031786;28;20110;-48
2022/02/02 08:58:49;;;;;;;17.95;3.50;;;5.90;99.90;;;;;;5031111;28;20025;-52
2022/02/02 09:01:24;;;;;;;18.83;3.72;;;6.10;99.90;;;;;;5030198;28;20111;-49
2022/02/02 09:06:34;;;;;;;30.45;4.20;;;6.20;99.90;;;;;;5031268;28;20025;-47
2022/02/02 09:09:10;;;;;;;21.83;3.72;;;6.30;99.90;;;;;;5029381;28;20476;-49
2022/02/02 09:23:25;;;;;;;23.98;3.55;;;6.60;99.90;;;;;;5031119;28;20035;-48
2022/02/02 09:25:38;;;;;;;15.73;3.45;;;6.60;99.90;;;;;;5030866;28;20368;-47
2022/02/02 09:36:08;;;;;;;21.40;5.05;;;6.50;99.90;;;;;;5030926;28;20052;-49
2022/02/02 09:38:34;;;;;;;25.08;3.42;;;6.60;99.90;;;;;;5029823;28;20022;-47
2022/02/02 09:43:47;;;;;;;18.50;3.22;;;6.60;99.90;;;;;;5030682;28;20037;-50
2022/02/02 09:46:17;;;;;;;19.00;3.80;;;6.60;99.90;;;;;;5030476;28;20028;-47
2022/02/02 09:51:16;;;;;;;22.70;4.15;;;6.80;99.90;;;;;;5030822;28;20037;-48
2022/02/02 09:53:53;;;;;;;17.50;4.05;;;6.80;99.90;;;;;;5030764;28;20065;-47
2022/02/02 09:59:17;;;;;;;20.75;5.00;;;6.90;99.90;;;;;;5030055;28;20276;-49
2022/02/02 10:15:33;;;;;;;19.52;3.70;;;7.50;99.90;;;;;;5030016;28;20025;-49
2022/02/02 10:18:06;;;;;;;16.30;3.28;;;7.70;99.90;;;;;;5029479;28;20017;-47
2022/02/02 10:20:36;;;;;;;15.13;3.17;;;8.80;99.90;;;;;;5029984;28;20545;-48
2022/02/02 10:23:03;;;;;;;16.25;3.50;;;9.70;99.90;;;;;;5030001;28;20399;-50
2022/02/02 10:25:47;;;;;;;11.77;3.40;;;10.20;99.90;;;;;;5029911;28;20026;-48
2022/02/02 10:28:20;;;;;;;24.33;3.72;;;10.10;99.90;;;;;;5029275;28;20525;-48
2022/02/02 10:30:54;;;;;;;11.88;2.72;;;11.00;99.90;;;;;;5029888;28;20025;-48
2022/02/02 10:33:22;;;;;;;9.57;2.80;;;11.10;97.70;;;;;;5029943;28;20021;-48
2022/02/02 10:35:49;;;;;;;9.10;2.38;;;10.40;97.10;;;;;;5030155;28;20033;-48
2022/02/02 10:38:18;;;;;;;17.63;3.22;;;9.50;99.40;;;;;;5029290;28;20033;-50
2022/02/02 10:40:51;;;;;;;15.77;3.72;;;9.30;99.90;;;;;;5029938;28;20013;-47
2022/02/02 10:44:02;;;;;;;11.93;2.70;;;9.00;99.90;;;;;;5029784;28;20018;-49
2022/02/02 10:46:42;;;;;;;11.55;2.72;;;9.00;99.90;;;;;;5029672;28;20271;-49
2022/02/02 10:49:21;;;;;;;21.90;3.08;;;9.20;99.90;;;;;;5029303;28;20029;-46
2022/02/02 10:52:54;;;;;;;14.30;3.20;;;9.20;99.90;;;;;;5032497;28;20487;-46
2022/02/02 10:55:15;;;;;;;24.02;3.47;;;9.10;99.90;;;;;;5032849;28;20041;-46
2022/02/02 10:58:01;;;;;;;11.93;3.17;;;8.90;99.90;;;;;;5032878;28;20114;-45
2022/02/02 11:00:45;;;;;;;17.35;3.00;;;8.70;99.90;;;;;;5033719;28;20049;-46
2022/02/02 11:08:42;;;;;;;13.75;2.95;;;10.90;98.10;;;;;;5033070;28;20048;-45
2022/02/02 11:11:11;;;;;;;12.82;2.58;;;11.80;95.10;;;;;;5033309;28;20552;-49
2022/02/02 11:13:36;;;;;;;10.82;2.72;;;13.10;92.30;;;;;;5033184;28;20029;-46
2022/02/02 11:16:04;;;;;;;8.60;2.63;;;13.50;90.70;;;;;;5033082;28;20033;-47
2022/02/02 11:18:36;;;;;;;10.35;2.70;;;14.10;89.90;;;;;;5032502;28;20471;-47
2022/02/02 11:21:09;;;;;;;10.07;3.05;;;14.80;83.10;;;;;;5033329;28;20032;-48
2022/02/02 11:23:49;;;;;;;11.25;2.72;;;15.60;80.00;;;;;;5033322;28;20025;-47
2022/02/02 11:26:40;;;;;;;8.73;2.45;;;15.90;76.50;;;;;;5033317;28;20033;-47
2022/02/02 11:29:06;;;;;;;8.93;2.85;;;14.10;80.00;;;;;;5032594;28;20537;-48
2022/02/02 11:31:32;;;;;;;21.90;3.35;;;12.90;85.90;;;;;;5033365;28;20030;-47
2022/02/02 11:33:59;;;;;;;14.48;3.60;;;12.00;88.60;;;;;;5033049;28;20030;-48
2022/02/02 11:36:34;;;;;;;11.52;3.00;;;11.00;93.30;;;;;;5033017;28;20246;-48
2022/02/02 11:39:05;;;;;;;9.80;3.00;;;10.10;96.00;;;;;;5032399;28;20137;-47
2022/02/02 11:44:19;;;;;;;17.23;3.50;;;9.90;99.50;;;;;;5033392;28;20032;-46
2022/02/02 11:47:08;;;;;;;13.95;3.53;;;10.20;98.30;;;;;;5032762;28;20379;-50
2022/02/02 11:49:59;;;;;;;14.32;3.53;;;10.80;97.60;;;;;;5032304;28;20455;-47
2022/02/02 11:52:43;;;;;;;12.13;2.95;;;11.70;94.50;;;;;;5032482;28;20061;-47
2022/02/02 11:55:11;;;;;;;10.73;2.40;;;11.90;91.60;;;;;;5032328;28;20026;-49
2022/02/02 11:58:00;;;;;;;10.85;3.15;;;11.10;93.90;;;;;;5032009;28;20026;-47
2022/02/02 12:00:33;;;;;;;13.48;3.08;;;10.60;94.50;;;;;;5032280;28;20060;-47
2022/02/02 12:06:17;;;;;;;17.63;3.70;;;9.30;99.10;;;;;;5032569;28;20040;-47
2022/02/02 12:49:48;;;;;;;11.45;2.42;;;6.30;99.90;;;;;;5030900;28;20033;-45
2022/02/02 12:55:48;;;;;;;8.48;2.50;;;5.90;99.90;;;;;;5031495;28;20167;-46
2022/02/02 12:57:53;;;;;;;5.85;2.05;;;5.90;99.90;;;;;;5030555;28;20033;-46
2022/02/02 13:00:36;;;;;;;19.15;2.70;;;6.10;99.90;;;;;;5031517;28;20463;-46
2022/02/02 13:03:03;;;;;;;15.73;2.88;;;6.20;99.90;;;;;;5031263;28;20365;-46
2022/02/02 13:05:30;;;;;;;8.77;2.63;;;6.20;99.90;;;;;;5031089;28;20492;-46
2022/02/02 13:07:59;;;;;;;17.75;2.20;;;6.20;99.90;;;;;;5030888;28;20033;-49
2022/02/02 13:10:26;;;;;;;9.90;2.70;;;6.10;99.90;;;;;;5031133;28;20363;-45
2022/02/02 13:13:05;;;;;;;11.38;2.90;;;6.00;99.90;;;;;;5030378;28;20116;-46
2022/02/02 13:18:15;;;;;;;12.20;2.50;;;6.10;99.90;;;;;;5030655;28;20131;-47
2022/02/02 13:26:39;;;;;;;9.52;2.75;;;6.60;99.90;;;;;;5018859;28;20132;-48
2022/02/02 13:29:16;;;;;;;13.55;2.45;;;6.60;99.90;;;;;;5028707;28;20479;-46
2022/02/02 13:32:05;;;;;;;9.65;2.38;;;6.90;99.90;;;;;;5029727;28;20399;-46
2022/02/02 13:34:47;;;;;;;8.00;2.17;;;7.00;99.90;;;;;;5030683;28;20036;-45
2022/02/02 13:50:39;;;;;;;11.30;2.92;;;7.00;99.90;;;;;;5030547;28;20033;-47
2022/02/02 13:57:01;;;;;;;15.30;2.95;;;6.60;99.90;;;;;;5030184;28;20423;-45
2022/02/02 14:01:31;;;;;;;11.73;2.72;;;6.30;99.90;;;;;;5030302;28;20422;-46
2022/02/02 14:04:20;;;;;;;8.63;1.40;;;6.30;99.90;;;;;;5030157;28;20030;-46
2022/02/02 14:25:37;;;;;;;7.80;1.60;;;6.30;99.90;;;;;;5030121;28;20064;-47
2022/02/02 14:33:38;;;;;;;13.90;2.17;;;6.70;99.90;;;;;;5030252;28;20246;-47
2022/02/02 14:36:07;;;;;;;9.98;2.50;;;6.60;99.90;;;;;;5029973;28;20034;-46
2022/02/02 14:38:39;;;;;;;5.53;2.58;;;6.50;99.90;;;;;;5029231;28;20028;-47
2022/02/02 14:41:27;;;;;;;9.75;2.80;;;6.50;99.90;;;;;;5029876;28;20106;-46
2022/02/02 14:44:02;;;;;;;14.43;2.95;;;6.40;99.90;;;;;;5029744;28;20442;-46
2022/02/02 14:46:42;;;;;;;17.23;3.22;;;6.40;99.90;;;;;;5028443;28;20025;-46
2022/02/02 14:49:28;;;;;;;14.63;2.78;;;6.30;99.90;;;;;;5028920;28;20025;-46
2022/02/02 14:52:03;;;;;;;14.30;1.92;;;6.30;99.90;;;;;;5029781;28;20125;-47
2022/02/02 15:25:05;;;;;;;9.20;1.63;;;5.30;99.90;;;;;;5029315;28;20079;-46
2022/02/02 15:28:13;;;;;;;7.47;1.73;;;5.20;99.90;;;;;;5028572;28;20034;-45
2022/02/02 15:30:44;;;;;;;10.82;2.00;;;5.20;99.90;;;;;;5028710;28;20034;-48
2022/02/02 15:33:15;;;;;;;10.85;1.92;;;5.10;99.90;;;;;;5029273;28;20164;-45
2022/02/02 15:35:42;;;;;;;6.32;1.75;;;5.00;99.90;;;;;;5029499;28;20037;-46
2022/02/02 15:38:17;;;;;;;8.07;1.70;;;5.00;99.90;;;;;;5032183;28;20026;-46
2022/02/02 15:40:54;;;;;;;9.95;2.38;;;5.00;99.90;;;;;;5033112;28;20024;-46
2022/02/02 15:43:30;;;;;;;13.15;1.77;;;5.00;99.90;;;;;;5032752;28;20018;-46
2022/02/02 15:57:53;;;;;;;15.95;2.35;;;4.80;99.90;;;;;;5032443;28;20076;-46
2022/02/02 16:00:23;;;;;;;16.27;2.70;;;4.70;99.90;;;;;;5031760;28;20025;-46
2022/02/02 16:05:15;;;;;;;13.13;2.40;;;4.60;99.90;;;;;;5032780;28;20032;-49
2022/02/02 16:07:41;;;;;;;11.27;2.75;;;4.60;99.90;;;;;;5031867;28;20468;-46
2022/02/02 16:10:14;;;;;;;8.30;3.42;;;4.60;99.90;;;;;;5032286;28;20112;-49
2022/02/02 16:12:43;;;;;;;8.43;2.28;;;4.60;99.90;;;;;;5032331;28;20479;-48
2022/02/02 16:31:55;;;;;;;11.10;2.95;;;4.80;99.90;;;;;;5031929;28;20413;-47
2022/02/02 16:36:48;;;;;;;10.23;2.33;;;4.70;99.90;;;;;;5031987;28;20044;-47
2022/02/02 16:39:20;;;;;;;13.85;3.65;;;4.70;99.90;;;;;;5031520;28;20029;-47
2022/02/02 16:44:30;;;;;;;18.02;2.80;;;4.50;99.90;;;;;;5031651;28;20083;-46
2022/02/02 16:46:57;;;;;;;17.77;3.35;;;4.40;99.90;;;;;;5029836;28;20434;-48
2022/02/02 16:49:23;;;;;;;14.27;2.97;;;4.40;99.90;;;;;;5030336;28;20101;-46
2022/02/02 16:51:49;;;;;;;20.02;3.08;;;4.40;99.90;;;;;;5031246;28;20128;-46
2022/02/02 16:54:24;;;;;;;13.63;3.38;;;4.30;99.90;;;;;;5031626;28;20036;-48
2022/02/02 17:34:56;;;;;;;12.35;2.15;;;4.30;99.90;;;;;;5030637;28;20079;-46
2022/02/02 17:40:14;;;;;;;10.40;2.90;;;4.30;99.90;;;;;;5030623;28;20031;-48
2022/02/02 18:00:04;;;;;;;11.88;2.72;;;4.10;99.90;;;;;;5029742;28;20035;-48
2022/02/02 18:12:34;;;;;;;20.33;3.30;;;3.90;99.90;;;;;;5030053;28;20033;-46
2022/02/02 18:20:28;;;;;;;16.67;3.80;;;3.80;99.90;;;;;;5030507;28;20052;-47
2022/02/02 18:25:42;;;;;;;16.30;3.80;;;3.70;99.90;;;;;;5030260;28;20087;-47
2022/02/02 18:28:15;;;;;;;17.42;4.00;;;3.70;99.90;;;;;;5029670;28;20266;-47
2022/02/02 18:30:59;;;;;;;15.50;3.72;;;3.70;99.90;;;;;;5028934;28;20049;-47
2022/02/02 18:33:39;;;;;;;16.33;4.28;;;3.70;99.90;;;;;;5030015;28;20368;-46
2022/02/02 18:55:12;;;;;;;16.73;3.95;;;3.50;99.90;;;;;;5031163;28;20095;-46
2022/02/02 19:03:02;;;;;;;22.02;3.97;;;3.50;99.90;;;;;;5029692;28;20083;-47
2022/02/02 19:08:17;;;;;;;20.77;5.05;;;3.50;99.90;;;;;;5028961;28;20079;-46
2022/02/02 19:57:24;;;;;;;23.58;4.90;;;3.50;99.90;;;;;;5032564;28;20151;-46
2022/02/02 20:05:20;;;;;;;20.60;3.65;;;3.50;99.90;;;;;;5032896;28;20071;-47
2022/02/02 20:08:03;;;;;;;29.42;5.05;;;3.50;99.90;;;;;;5032200;28;20068;-47
2022/02/02 20:10:39;;;;;;;15.82;3.92;;;3.50;99.90;;;;;;5032858;28;20091;-49
2022/02/02 20:13:04;;;;;;;19.30;3.88;;;3.40;99.90;;;;;;5032261;28;20048;-47
2022/02/02 20:15:35;;;;;;;19.10;4.20;;;3.40;99.90;;;;;;5032142;28;20041;-47
2022/02/02 20:18:03;;;;;;;12.43;3.85;;;3.40;99.90;;;;;;5031984;28;20432;-49
2022/02/02 20:20:28;;;;;;;23.15;4.45;;;3.40;99.90;;;;;;5032441;28;20087;-48
2022/02/02 20:22:55;;;;;;;16.17;4.40;;;3.30;99.90;;;;;;5032017;28;20017;-47
2022/02/02 20:25:20;;;;;;;16.02;4.13;;;3.30;99.90;;;;;;5032286;28;20036;-45
2022/02/02 20:28:04;;;;;;;20.48;4.93;;;3.30;99.90;;;;;;5031295;28;20037;-47
2022/02/02 20:30:30;;;;;;;27.75;4.90;;;3.30;99.90;;;;;;5031135;28;20372;-48
2022/02/02 20:32:56;;;;;;;14.93;3.72;;;3.30;99.90;;;;;;5031822;28;20036;-50
2022/02/02 20:35:21;;;;;;;24.65;6.55;;;3.30;99.90;;;;;;5031796;28;20446;-47
2022/02/02 20:37:47;;;;;;;16.40;4.40;;;3.30;99.90;;;;;;5031222;28;20430;-45
2022/02/02 20:40:13;;;;;;;17.85;3.85;;;3.30;99.90;;;;;;5031623;28;20033;-45
2022/02/02 20:42:54;;;;;;;28.48;4.65;;;3.30;99.90;;;;;;5031697;28;20017;-47
2022/02/02 21:03:01;;;;;;;20.13;4.32;;;3.30;99.90;;;;;;5031649;28;20035;-46
2022/02/02 21:07:32;;;;;;;32.85;4.50;;;3.30;99.90;;;;;;5030457;28;20087;-47
2022/02/02 21:15:14;;;;;;;20.10;3.42;;;3.40;99.90;;;;;;5031160;28;20499;-47
2022/02/02 21:17:40;;;;;;;19.13;3.95;;;3.40;99.90;;;;;;5030295;28;20113;-45
2022/02/02 21:20:18;;;;;;;24.70;4.05;;;3.50;99.90;;;;;;5030909;28;20021;-47
2022/02/02 21:23:32;;;;;;;27.40;4.63;;;3.50;99.90;;;;;;5029652;28;20024;-46
2022/02/02 21:25:40;;;;;;;18.98;3.70;;;3.50;99.90;;;;;;5030118;28;20033;-46
2022/02/02 21:28:07;;;;;;;24.95;4.13;;;3.50;99.90;;;;;;5030093;28;20068;-45
2022/02/02 21:30:35;;;;;;;15.00;4.15;;;3.50;99.90;;;;;;5030762;28;20025;-46
2022/02/02 21:33:02;;;;;;;22.67;4.50;;;3.60;99.90;;;;;;5030723;28;20033;-45
2022/02/02 21:35:27;;;;;;;22.38;4.47;;;3.50;99.90;;;;;;5030207;28;20391;-48
2022/02/02 21:38:02;;;;;;;20.92;4.80;;;3.60;99.90;;;;;;5028793;28;20018;-47
2022/02/02 21:40:29;;;;;;;26.30;4.47;;;3.60;99.90;;;;;;5030693;28;20545;-46
2022/02/02 21:42:56;;;;;;;22.60;6.07;;;3.60;99.90;;;;;;5030727;28;20021;-46
2022/02/02 21:45:23;;;;;;;24.45;4.60;;;3.60;99.90;;;;;;5030935;28;20022;-46
2022/02/02 21:47:49;;;;;;;21.75;5.43;;;3.70;99.90;;;;;;5030001;28;20087;-45
2022/02/02 21:50:18;;;;;;;22.48;4.78;;;3.70;99.90;;;;;;5030443;28;20021;-45
2022/02/02 21:52:45;;;;;;;21.38;4.95;;;3.70;99.90;;;;;;5030745;28;20030;-46
2022/02/02 21:55:11;;;;;;;18.88;4.75;;;3.70;99.90;;;;;;5028908;28;20030;-46
2022/02/02 21:57:37;;;;;;;18.45;5.28;;;3.70;99.90;;;;;;5028561;28;20397;-45
2022/02/02 22:00:06;;;;;;;19.02;4.53;;;3.70;99.90;;;;;;5030253;28;20100;-46
2022/02/02 22:02:34;;;;;;;27.45;5.03;;;3.70;99.90;;;;;;5030110;28;20025;-47
2022/02/02 22:05:00;;;;;;;21.63;5.38;;;3.80;99.90;;;;;;5030121;28;20502;-49
2022/02/02 22:07:26;;;;;;;21.25;5.68;;;3.80;99.90;;;;;;5029919;28;20041;-46
2022/02/02 22:09:55;;;;;;;26.73;6.18;;;3.80;99.90;;;;;;5030077;28;20029;-48
2022/02/02 22:12:22;;;;;;;27.88;5.35;;;3.80;99.90;;;;;;5030069;28;20037;-46
2022/02/02 22:14:50;;;;;;;25.52;5.03;;;3.80;99.90;;;;;;5030244;28;20087;-47
2022/02/02 22:17:16;;;;;;;27.05;5.75;;;3.80;99.90;;;;;;5029571;28;20104;-45
2022/02/02 22:19:42;;;;;;;29.05;6.00;;;3.80;99.90;;;;;;5029718;28;20018;-46
2022/02/02 22:22:08;;;;;;;25.38;5.70;;;3.80;99.90;;;;;;5029926;28;20022;-46
2022/02/02 22:24:38;;;;;;;22.42;7.32;;;3.80;99.90;;;;;;5029812;28;20121;-46
2022/02/02 22:27:04;;;;;;;20.35;4.65;;;3.80;99.90;;;;;;5030254;28;20022;-46
2022/02/02 22:29:31;;;;;;;27.25;5.88;;;3.80;99.90;;;;;;5028068;28;20036;-46
2022/02/02 22:31:57;;;;;;;20.77;4.78;;;3.90;99.90;;;;;;5029991;28;20022;-45
2022/02/02 22:34:23;;;;;;;27.95;4.70;;;3.90;99.90;;;;;;5029806;28;20025;-46
2022/02/02 22:36:51;;;;;;;24.52;5.28;;;3.80;99.90;;;;;;5029710;28;20026;-49
2022/02/02 22:39:16;;;;;;;20.85;4.68;;;3.80;99.90;;;;;;5029463;28;20398;-46
2022/02/02 22:41:42;;;;;;;25.13;5.15;;;3.80;99.90;;;;;;5029824;28;20024;-46
2022/02/02 22:44:12;;;;;;;25.27;4.65;;;3.80;99.90;;;;;;5029574;28;20041;-45
2022/02/02 22:46:38;;;;;;;24.43;5.10;;;3.70;99.90;;;;;;5031938;28;20021;-46
2022/02/02 22:49:04;;;;;;;28.80;5.85;;;3.70;99.90;;;;;;5031959;28;20268;-46
2022/02/02 22:51:31;;;;;;;17.77;5.03;;;3.70;99.90;;;;;;5033640;28;20099;-47
2022/02/02 22:53:58;;;;;;;20.15;4.65;;;3.70;99.90;;;;;;5033678;28;20024;-45
2022/02/02 22:56:23;;;;;;;22.80;4.90;;;3.60;99.90;;;;;;5033702;28;20036;-46
2022/02/02 22:58:50;;;;;;;18.90;4.93;;;3.60;99.90;;;;;;5032937;28;20029;-47
2022/02/02 23:01:17;;;;;;;35.47;6.18;;;3.60;99.90;;;;;;5033594;28;20122;-45
2022/02/02 23:03:44;;;;;;;23.60;4.63;;;3.50;99.90;;;;;;5033472;28;20100;-46
2022/02/02 23:06:09;;;;;;;18.83;4.72;;;3.50;99.90;;;;;;5033306;28;20472;-47
2022/02/02 23:08:35;;;;;;;25.85;5.13;;;3.50;99.90;;;;;;5032812;28;20091;-47
2022/02/02 23:11:01;;;;;;;23.00;5.53;;;3.50;99.90;;;;;;5033719;28;20105;-46
2022/02/02 23:13:28;;;;;;;25.02;4.90;;;3.50;99.90;;;;;;5033511;28;20032;-45
2022/02/02 23:18:28;;;;;;;19.25;4.70;;;3.50;99.90;;;;;;5032665;28;20049;-46
2022/02/02 23:20:58;;;;;;;23.17;5.72;;;3.50;99.90;;;;;;5033230;28;20037;-46
2022/02/02 23:23:25;;;;;;;;;;;3.40;99.90;;;;;;5033655;28;20416;-46